Deming Municipal Airport Deming US
ICAO: KDMN
IATA: DMN
Category: Medium
Scheduled Services: No

Elevation: 4314 ft
TransAlt. 18000 ft.

Airport Communications:
ASOS:118.525
ALBUQUERQUE CNTR:128.2
ALBUQUERQUE RDO:122.2
CTAF/UNICOM:122.8

KDMN Zoom In..

If you have problems with the map follow the link
https://www.worldairports.se/pages/airport.php?
ICAO=KDMN

Runways:

(A) RW 04 length 5675 ft width 60 ft
---- / hdg 42

(B) RW 08 length 8018 ft width 75 ft
---- / hdg 80

(C) RW 22 length 5675 ft width 60 ft
---- / hdg 222

(D) RW 26 length 8018 ft width 75 ft
---- / hdg 260

Location; KDMN
Day. 14 / Time. 11.53 Zulu
* Altimeter: 30.49
* Temperature: -06° c. -21.2°f.
* Wind from: 000° Speed 00 kn.
Dewpoint: -13° c.
Visibility: 10 Statute Miles.
Clouds: Clear (automated report).

KDMN 141153Z AUTO 00000KT 10SM CLR M06/M13 A3049 RMK AO2 SLP326 T10611128 11028 21067 56006


Wind - Calm.

 
 
jpsmedia.com for Web Design worldairports.se 2018   terms of use